sensor_id;sensor_type;location;lat;lon;timestamp;P1;durP1;ratioP1;P2;durP2;ratioP2
71435;SDS011;59251;51.326;12.370;2023-09-08T00:00:39;10.38;;;5.18;;
71435;SDS011;59251;51.326;12.370;2023-09-08T00:03:06;10.57;;;5.07;;
71435;SDS011;59251;51.326;12.370;2023-09-08T00:05:32;10.38;;;4.95;;
71435;SDS011;59251;51.326;12.370;2023-09-08T00:07:59;12.55;;;5.28;;
71435;SDS011;59251;51.326;12.370;2023-09-08T00:10:26;13.15;;;5.32;;
71435;SDS011;59251;51.326;12.370;2023-09-08T00:12:52;13.10;;;4.55;;
71435;SDS011;59251;51.326;12.370;2023-09-08T00:15:20;9.90;;;4.90;;
71435;SDS011;59251;51.326;12.370;2023-09-08T00:17:47;10.88;;;5.25;;
71435;SDS011;59251;51.326;12.370;2023-09-08T00:20:14;11.43;;;5.10;;
71435;SDS011;59251;51.326;12.370;2023-09-08T00:22:41;11.05;;;4.97;;
71435;SDS011;59251;51.326;12.370;2023-09-08T00:25:07;10.82;;;5.03;;
71435;SDS011;59251;51.326;12.370;2023-09-08T00:27:34;9.80;;;4.90;;
71435;SDS011;59251;51.326;12.370;2023-09-08T00:30:01;10.07;;;5.22;;
71435;SDS011;59251;51.326;12.370;2023-09-08T00:32:30;10.20;;;5.32;;
71435;SDS011;59251;51.326;12.370;2023-09-08T00:34:56;9.55;;;5.13;;
71435;SDS011;59251;51.326;12.370;2023-09-08T00:37:23;9.05;;;4.82;;
71435;SDS011;59251;51.326;12.370;2023-09-08T00:39:50;11.07;;;5.10;;
71435;SDS011;59251;51.326;12.370;2023-09-08T00:42:16;9.50;;;5.10;;
71435;SDS011;59251;51.326;12.370;2023-09-08T00:44:43;10.02;;;5.07;;
71435;SDS011;59251;51.326;12.370;2023-09-08T00:47:10;11.75;;;5.15;;
71435;SDS011;59251;51.326;12.370;2023-09-08T00:49:39;11.07;;;5.43;;
71435;SDS011;59251;51.326;12.370;2023-09-08T00:52:05;9.73;;;5.10;;
71435;SDS011;59251;51.326;12.370;2023-09-08T00:54:32;10.23;;;5.75;;
71435;SDS011;59251;51.326;12.370;2023-09-08T00:56:59;14.52;;;5.30;;
71435;SDS011;59251;51.326;12.370;2023-09-08T00:59:28;11.23;;;5.28;;
71435;SDS011;59251;51.326;12.370;2023-09-08T01:01:57;11.18;;;4.90;;
71435;SDS011;59251;51.326;12.370;2023-09-08T01:04:26;10.67;;;5.27;;
71435;SDS011;59251;51.326;12.370;2023-09-08T01:06:54;9.48;;;4.75;;
71435;SDS011;59251;51.326;12.370;2023-09-08T01:09:22;12.40;;;5.45;;
71435;SDS011;59251;51.326;12.370;2023-09-08T01:11:50;10.30;;;5.15;;
71435;SDS011;59251;51.326;12.370;2023-09-08T01:14:17;10.90;;;5.22;;
71435;SDS011;59251;51.326;12.370;2023-09-08T01:16:45;9.73;;;5.40;;
71435;SDS011;59251;51.326;12.370;2023-09-08T01:19:13;11.23;;;5.35;;
71435;SDS011;59251;51.326;12.370;2023-09-08T01:24:43;14.10;;;6.50;;
71435;SDS011;59251;51.326;12.370;2023-09-08T01:27:41;10.05;;;5.53;;
71435;SDS011;59251;51.326;12.370;2023-09-08T01:30:12;11.60;;;5.60;;
71435;SDS011;59251;51.326;12.370;2023-09-08T01:32:40;10.00;;;5.10;;
71435;SDS011;59251;51.326;12.370;2023-09-08T01:35:07;10.30;;;5.53;;
71435;SDS011;59251;51.326;12.370;2023-09-08T01:37:35;10.32;;;5.65;;
71435;SDS011;59251;51.326;12.370;2023-09-08T01:40:02;12.35;;;5.25;;
71435;SDS011;59251;51.326;12.370;2023-09-08T01:42:30;10.90;;;5.43;;
71435;SDS011;59251;51.326;12.370;2023-09-08T01:44:57;11.40;;;5.57;;
71435;SDS011;59251;51.326;12.370;2023-09-08T01:47:24;11.45;;;5.75;;
71435;SDS011;59251;51.326;12.370;2023-09-08T01:49:50;9.35;;;5.10;;
71435;SDS011;59251;51.326;12.370;2023-09-08T01:52:18;12.27;;;5.47;;
71435;SDS011;59251;51.326;12.370;2023-09-08T01:54:45;10.20;;;5.30;;
71435;SDS011;59251;51.326;12.370;2023-09-08T01:57:11;10.43;;;5.20;;
71435;SDS011;59251;51.326;12.370;2023-09-08T01:59:40;9.70;;;5.10;;
71435;SDS011;59251;51.326;12.370;2023-09-08T02:02:07;12.73;;;5.53;;
71435;SDS011;59251;51.326;12.370;2023-09-08T02:07:09;10.77;;;5.07;;
71435;SDS011;59251;51.326;12.370;2023-09-08T02:09:36;9.80;;;5.10;;
71435;SDS011;59251;51.326;12.370;2023-09-08T02:12:04;11.15;;;5.78;;
71435;SDS011;59251;51.326;12.370;2023-09-08T02:14:31;11.10;;;5.22;;
71435;SDS011;59251;51.326;12.370;2023-09-08T02:16:59;11.75;;;5.10;;
71435;SDS011;59251;51.326;12.370;2023-09-08T02:19:26;12.30;;;5.53;;
71435;SDS011;59251;51.326;12.370;2023-09-08T02:21:52;12.38;;;5.75;;
71435;SDS011;59251;51.326;12.370;2023-09-08T02:24:19;10.45;;;5.63;;
71435;SDS011;59251;51.326;12.370;2023-09-08T02:26:46;12.30;;;5.53;;
71435;SDS011;59251;51.326;12.370;2023-09-08T02:29:13;10.30;;;5.15;;
71435;SDS011;59251;51.326;12.370;2023-09-08T02:31:40;14.23;;;5.27;;
71435;SDS011;59251;51.326;12.370;2023-09-08T02:34:09;11.27;;;5.22;;
71435;SDS011;59251;51.326;12.370;2023-09-08T02:36:37;11.00;;;5.43;;
71435;SDS011;59251;51.326;12.370;2023-09-08T02:39:04;9.63;;;4.70;;
71435;SDS011;59251;51.326;12.370;2023-09-08T02:41:32;9.73;;;5.03;;
71435;SDS011;59251;51.326;12.370;2023-09-08T02:44:00;10.53;;;4.77;;
71435;SDS011;59251;51.326;12.370;2023-09-08T02:46:25;11.18;;;4.95;;
71435;SDS011;59251;51.326;12.370;2023-09-08T02:48:53;11.25;;;5.30;;
71435;SDS011;59251;51.326;12.370;2023-09-08T02:51:21;10.15;;;5.13;;
71435;SDS011;59251;51.326;12.370;2023-09-08T02:53:48;10.73;;;5.03;;
71435;SDS011;59251;51.326;12.370;2023-09-08T02:56:14;11.02;;;5.00;;
71435;SDS011;59251;51.326;12.370;2023-09-08T02:58:40;10.32;;;4.80;;
71435;SDS011;59251;51.326;12.370;2023-09-08T03:01:11;10.57;;;4.93;;
71435;SDS011;59251;51.326;12.370;2023-09-08T03:03:40;10.90;;;5.18;;
71435;SDS011;59251;51.326;12.370;2023-09-08T03:06:07;11.20;;;5.63;;
71435;SDS011;59251;51.326;12.370;2023-09-08T03:08:36;12.40;;;5.57;;
71435;SDS011;59251;51.326;12.370;2023-09-08T03:11:03;15.50;;;5.75;;
71435;SDS011;59251;51.326;12.370;2023-09-08T03:13:30;11.13;;;5.80;;
71435;SDS011;59251;51.326;12.370;2023-09-08T03:16:01;11.70;;;5.85;;
71435;SDS011;59251;51.326;12.370;2023-09-08T03:18:28;11.63;;;5.50;;
71435;SDS011;59251;51.326;12.370;2023-09-08T03:20:55;13.63;;;6.25;;
71435;SDS011;59251;51.326;12.370;2023-09-08T03:23:22;12.20;;;6.20;;
71435;SDS011;59251;51.326;12.370;2023-09-08T03:25:50;12.27;;;6.53;;
71435;SDS011;59251;51.326;12.370;2023-09-08T03:28:16;15.10;;;6.38;;
71435;SDS011;59251;51.326;12.370;2023-09-08T03:30:43;11.20;;;6.20;;
71435;SDS011;59251;51.326;12.370;2023-09-08T03:33:10;13.38;;;6.07;;
71435;SDS011;59251;51.326;12.370;2023-09-08T03:35:37;12.43;;;5.95;;
71435;SDS011;59251;51.326;12.370;2023-09-08T03:38:04;13.17;;;5.93;;
71435;SDS011;59251;51.326;12.370;2023-09-08T03:40:30;11.80;;;6.05;;
71435;SDS011;59251;51.326;12.370;2023-09-08T03:42:58;11.75;;;6.18;;
71435;SDS011;59251;51.326;12.370;2023-09-08T03:45:25;11.35;;;5.68;;
71435;SDS011;59251;51.326;12.370;2023-09-08T03:47:52;13.43;;;5.95;;
71435;SDS011;59251;51.326;12.370;2023-09-08T03:50:18;12.43;;;6.33;;
71435;SDS011;59251;51.326;12.370;2023-09-08T03:52:45;11.35;;;5.55;;
71435;SDS011;59251;51.326;12.370;2023-09-08T03:55:12;12.30;;;5.75;;
71435;SDS011;59251;51.326;12.370;2023-09-08T03:57:39;11.32;;;5.97;;
71435;SDS011;59251;51.326;12.370;2023-09-08T04:00:08;11.10;;;5.50;;
71435;SDS011;59251;51.326;12.370;2023-09-08T04:02:39;11.30;;;5.43;;
71435;SDS011;59251;51.326;12.370;2023-09-08T04:05:06;12.60;;;6.18;;
71435;SDS011;59251;51.326;12.370;2023-09-08T04:07:36;13.88;;;5.85;;
71435;SDS011;59251;51.326;12.370;2023-09-08T04:10:03;14.68;;;5.95;;
71435;SDS011;59251;51.326;12.370;2023-09-08T04:12:30;12.88;;;6.10;;
71435;SDS011;59251;51.326;12.370;2023-09-08T04:14:57;12.00;;;5.60;;
71435;SDS011;59251;51.326;12.370;2023-09-08T04:17:25;10.80;;;5.80;;
71435;SDS011;59251;51.326;12.370;2023-09-08T04:19:51;15.05;;;6.47;;
71435;SDS011;59251;51.326;12.370;2023-09-08T04:22:18;11.77;;;5.50;;
71435;SDS011;59251;51.326;12.370;2023-09-08T04:24:45;10.45;;;5.78;;
71435;SDS011;59251;51.326;12.370;2023-09-08T04:27:12;11.03;;;5.60;;
71435;SDS011;59251;51.326;12.370;2023-09-08T04:29:38;11.27;;;5.35;;
71435;SDS011;59251;51.326;12.370;2023-09-08T04:32:05;12.15;;;6.32;;
71435;SDS011;59251;51.326;12.370;2023-09-08T04:34:37;11.20;;;6.10;;
71435;SDS011;59251;51.326;12.370;2023-09-08T04:37:04;11.93;;;6.13;;
71435;SDS011;59251;51.326;12.370;2023-09-08T04:39:31;14.47;;;6.40;;
71435;SDS011;59251;51.326;12.370;2023-09-08T04:41:58;11.32;;;6.00;;
71435;SDS011;59251;51.326;12.370;2023-09-08T04:44:25;11.10;;;5.57;;
71435;SDS011;59251;51.326;12.370;2023-09-08T04:46:53;10.75;;;5.82;;
71435;SDS011;59251;51.326;12.370;2023-09-08T04:49:20;12.82;;;5.80;;
71435;SDS011;59251;51.326;12.370;2023-09-08T04:51:48;13.53;;;5.73;;
71435;SDS011;59251;51.326;12.370;2023-09-08T04:54:17;10.35;;;5.90;;
71435;SDS011;59251;51.326;12.370;2023-09-08T04:56:46;15.38;;;6.05;;
71435;SDS011;59251;51.326;12.370;2023-09-08T04:59:13;14.75;;;6.60;;
71435;SDS011;59251;51.326;12.370;2023-09-08T05:01:40;11.63;;;5.80;;
71435;SDS011;59251;51.326;12.370;2023-09-08T05:04:09;13.63;;;6.07;;
71435;SDS011;59251;51.326;12.370;2023-09-08T05:06:36;15.38;;;6.57;;
71435;SDS011;59251;51.326;12.370;2023-09-08T05:09:04;15.60;;;6.72;;
71435;SDS011;59251;51.326;12.370;2023-09-08T05:11:32;14.25;;;6.40;;
71435;SDS011;59251;51.326;12.370;2023-09-08T05:13:58;12.93;;;6.43;;
71435;SDS011;59251;51.326;12.370;2023-09-08T05:16:26;12.70;;;5.97;;
71435;SDS011;59251;51.326;12.370;2023-09-08T05:19:03;12.50;;;5.95;;
71435;SDS011;59251;51.326;12.370;2023-09-08T05:21:30;11.35;;;5.95;;
71435;SDS011;59251;51.326;12.370;2023-09-08T05:23:57;12.35;;;6.57;;
71435;SDS011;59251;51.326;12.370;2023-09-08T05:26:25;11.40;;;6.30;;
71435;SDS011;59251;51.326;12.370;2023-09-08T05:28:52;15.27;;;6.20;;
71435;SDS011;59251;51.326;12.370;2023-09-08T05:31:19;11.25;;;5.47;;
71435;SDS011;59251;51.326;12.370;2023-09-08T05:33:45;13.02;;;6.25;;
71435;SDS011;59251;51.326;12.370;2023-09-08T05:36:12;11.95;;;6.50;;
71435;SDS011;59251;51.326;12.370;2023-09-08T05:38:39;11.80;;;6.13;;
71435;SDS011;59251;51.326;12.370;2023-09-08T05:41:06;12.83;;;6.00;;
71435;SDS011;59251;51.326;12.370;2023-09-08T05:43:34;13.02;;;6.30;;
71435;SDS011;59251;51.326;12.370;2023-09-08T05:46:01;12.75;;;6.45;;
71435;SDS011;59251;51.326;12.370;2023-09-08T05:48:29;11.20;;;6.75;;
71435;SDS011;59251;51.326;12.370;2023-09-08T05:50:57;14.15;;;6.07;;
71435;SDS011;59251;51.326;12.370;2023-09-08T05:53:24;14.73;;;6.40;;
71435;SDS011;59251;51.326;12.370;2023-09-08T05:55:51;14.20;;;6.22;;
71435;SDS011;59251;51.326;12.370;2023-09-08T05:58:18;11.68;;;5.85;;
71435;SDS011;59251;51.326;12.370;2023-09-08T06:00:46;13.85;;;5.70;;
71435;SDS011;59251;51.326;12.370;2023-09-08T06:03:13;13.90;;;6.38;;
71435;SDS011;59251;51.326;12.370;2023-09-08T06:05:40;13.53;;;6.17;;
71435;SDS011;59251;51.326;12.370;2023-09-08T06:08:07;12.38;;;6.13;;
71435;SDS011;59251;51.326;12.370;2023-09-08T06:10:38;14.70;;;6.05;;
71435;SDS011;59251;51.326;12.370;2023-09-08T06:13:05;13.30;;;6.50;;
71435;SDS011;59251;51.326;12.370;2023-09-08T06:15:32;11.88;;;6.25;;
71435;SDS011;59251;51.326;12.370;2023-09-08T06:18:01;14.47;;;6.43;;
71435;SDS011;59251;51.326;12.370;2023-09-08T06:20:28;13.65;;;6.55;;
71435;SDS011;59251;51.326;12.370;2023-09-08T06:22:55;12.52;;;6.30;;
71435;SDS011;59251;51.326;12.370;2023-09-08T06:25:22;11.02;;;6.15;;
71435;SDS011;59251;51.326;12.370;2023-09-08T06:27:49;14.32;;;6.80;;
71435;SDS011;59251;51.326;12.370;2023-09-08T06:30:16;12.20;;;6.70;;
71435;SDS011;59251;51.326;12.370;2023-09-08T06:32:44;13.98;;;6.15;;
71435;SDS011;59251;51.326;12.370;2023-09-08T06:35:12;13.57;;;6.53;;
71435;SDS011;59251;51.326;12.370;2023-09-08T06:37:39;13.27;;;6.30;;
71435;SDS011;59251;51.326;12.370;2023-09-08T06:40:07;14.15;;;6.07;;
71435;SDS011;59251;51.326;12.370;2023-09-08T06:42:34;11.20;;;5.60;;
71435;SDS011;59251;51.326;12.370;2023-09-08T06:45:10;11.02;;;6.05;;
71435;SDS011;59251;51.326;12.370;2023-09-08T06:47:38;11.75;;;5.95;;
71435;SDS011;59251;51.326;12.370;2023-09-08T06:50:05;14.35;;;6.35;;
71435;SDS011;59251;51.326;12.370;2023-09-08T06:52:34;12.35;;;6.45;;
71435;SDS011;59251;51.326;12.370;2023-09-08T06:55:02;12.70;;;5.40;;
71435;SDS011;59251;51.326;12.370;2023-09-08T06:57:30;13.93;;;6.53;;
71435;SDS011;59251;51.326;12.370;2023-09-08T06:59:57;13.00;;;5.57;;
71435;SDS011;59251;51.326;12.370;2023-09-08T07:02:24;12.68;;;6.35;;
71435;SDS011;59251;51.326;12.370;2023-09-08T07:04:51;14.38;;;6.28;;
71435;SDS011;59251;51.326;12.370;2023-09-08T07:07:17;12.50;;;6.37;;
71435;SDS011;59251;51.326;12.370;2023-09-08T07:09:47;15.55;;;6.10;;
71435;SDS011;59251;51.326;12.370;2023-09-08T07:12:14;12.82;;;6.50;;
71435;SDS011;59251;51.326;12.370;2023-09-08T07:14:41;15.57;;;8.27;;
71435;SDS011;59251;51.326;12.370;2023-09-08T07:17:08;14.00;;;6.47;;
71435;SDS011;59251;51.326;12.370;2023-09-08T07:19:34;13.53;;;6.00;;
71435;SDS011;59251;51.326;12.370;2023-09-08T07:22:01;13.80;;;5.78;;
71435;SDS011;59251;51.326;12.370;2023-09-08T07:24:28;13.57;;;6.35;;
71435;SDS011;59251;51.326;12.370;2023-09-08T07:26:56;11.20;;;5.85;;
71435;SDS011;59251;51.326;12.370;2023-09-08T07:29:23;15.25;;;6.32;;
71435;SDS011;59251;51.326;12.370;2023-09-08T07:31:50;10.97;;;6.10;;
71435;SDS011;59251;51.326;12.370;2023-09-08T07:34:17;12.13;;;5.90;;
71435;SDS011;59251;51.326;12.370;2023-09-08T07:36:44;15.18;;;5.88;;
71435;SDS011;59251;51.326;12.370;2023-09-08T07:39:11;10.88;;;5.15;;
71435;SDS011;59251;51.326;12.370;2023-09-08T07:41:38;13.57;;;5.85;;
71435;SDS011;59251;51.326;12.370;2023-09-08T07:44:07;11.77;;;5.57;;
71435;SDS011;59251;51.326;12.370;2023-09-08T07:46:34;10.15;;;5.45;;
71435;SDS011;59251;51.326;12.370;2023-09-08T07:49:01;12.98;;;6.25;;
71435;SDS011;59251;51.326;12.370;2023-09-08T07:51:28;10.50;;;5.38;;
71435;SDS011;59251;51.326;12.370;2023-09-08T07:53:55;14.45;;;5.63;;
71435;SDS011;59251;51.326;12.370;2023-09-08T07:56:22;12.40;;;5.50;;
71435;SDS011;59251;51.326;12.370;2023-09-08T07:58:48;12.55;;;6.07;;
71435;SDS011;59251;51.326;12.370;2023-09-08T08:01:16;12.43;;;5.95;;
71435;SDS011;59251;51.326;12.370;2023-09-08T08:03:43;10.45;;;5.13;;
71435;SDS011;59251;51.326;12.370;2023-09-08T08:06:10;10.80;;;5.18;;
71435;SDS011;59251;51.326;12.370;2023-09-08T08:08:36;11.70;;;5.43;;
71435;SDS011;59251;51.326;12.370;2023-09-08T08:11:08;9.63;;;4.93;;
71435;SDS011;59251;51.326;12.370;2023-09-08T08:13:35;9.43;;;4.63;;
71435;SDS011;59251;51.326;12.370;2023-09-08T08:16:02;11.23;;;5.32;;
71435;SDS011;59251;51.326;12.370;2023-09-08T08:18:30;10.15;;;5.30;;
71435;SDS011;59251;51.326;12.370;2023-09-08T08:20:56;10.30;;;4.47;;
71435;SDS011;59251;51.326;12.370;2023-09-08T08:23:23;11.95;;;4.90;;
71435;SDS011;59251;51.326;12.370;2023-09-08T08:25:50;10.63;;;4.93;;
71435;SDS011;59251;51.326;12.370;2023-09-08T08:28:16;9.93;;;5.18;;
71435;SDS011;59251;51.326;12.370;2023-09-08T08:30:43;10.77;;;4.90;;
71435;SDS011;59251;51.326;12.370;2023-09-08T08:33:10;13.27;;;5.27;;
71435;SDS011;59251;51.326;12.370;2023-09-08T08:35:38;9.02;;;4.65;;
71435;SDS011;59251;51.326;12.370;2023-09-08T08:38:05;9.23;;;4.97;;
71435;SDS011;59251;51.326;12.370;2023-09-08T08:40:32;11.50;;;4.57;;
71435;SDS011;59251;51.326;12.370;2023-09-08T08:42:59;10.57;;;5.05;;
71435;SDS011;59251;51.326;12.370;2023-09-08T08:45:26;10.00;;;4.90;;
71435;SDS011;59251;51.326;12.370;2023-09-08T08:47:53;9.65;;;4.90;;
71435;SDS011;59251;51.326;12.370;2023-09-08T08:50:21;10.55;;;4.85;;
71435;SDS011;59251;51.326;12.370;2023-09-08T08:52:49;8.90;;;4.78;;
71435;SDS011;59251;51.326;12.370;2023-09-08T08:55:16;10.30;;;5.00;;
71435;SDS011;59251;51.326;12.370;2023-09-08T08:57:43;12.33;;;4.93;;
71435;SDS011;59251;51.326;12.370;2023-09-08T09:00:10;9.32;;;4.72;;
71435;SDS011;59251;51.326;12.370;2023-09-08T09:02:40;9.15;;;4.90;;
71435;SDS011;59251;51.326;12.370;2023-09-08T09:05:08;9.75;;;5.18;;
71435;SDS011;59251;51.326;12.370;2023-09-08T09:07:38;9.00;;;5.00;;
71435;SDS011;59251;51.326;12.370;2023-09-08T09:10:06;10.07;;;5.00;;
71435;SDS011;59251;51.326;12.370;2023-09-08T09:12:34;9.73;;;4.60;;
71435;SDS011;59251;51.326;12.370;2023-09-08T09:15:03;12.23;;;4.75;;
71435;SDS011;59251;51.326;12.370;2023-09-08T09:17:32;8.73;;;4.50;;
71435;SDS011;59251;51.326;12.370;2023-09-08T09:20:12;11.40;;;4.72;;
71435;SDS011;59251;51.326;12.370;2023-09-08T09:22:42;11.80;;;4.63;;
71435;SDS011;59251;51.326;12.370;2023-09-08T09:25:11;10.95;;;4.55;;
71435;SDS011;59251;51.326;12.370;2023-09-08T09:27:49;9.77;;;4.80;;
71435;SDS011;59251;51.326;12.370;2023-09-08T09:30:17;9.02;;;4.82;;
71435;SDS011;59251;51.326;12.370;2023-09-08T09:32:44;10.15;;;4.82;;
71435;SDS011;59251;51.326;12.370;2023-09-08T09:35:11;9.43;;;4.37;;
71435;SDS011;59251;51.326;12.370;2023-09-08T09:37:40;9.18;;;4.60;;
71435;SDS011;59251;51.326;12.370;2023-09-08T09:40:07;8.80;;;4.72;;
71435;SDS011;59251;51.326;12.370;2023-09-08T09:42:38;9.18;;;4.80;;
71435;SDS011;59251;51.326;12.370;2023-09-08T09:45:06;7.65;;;4.30;;
71435;SDS011;59251;51.326;12.370;2023-09-08T09:47:34;8.17;;;4.07;;
71435;SDS011;59251;51.326;12.370;2023-09-08T09:50:01;9.77;;;4.65;;
71435;SDS011;59251;51.326;12.370;2023-09-08T09:52:28;8.10;;;4.03;;
71435;SDS011;59251;51.326;12.370;2023-09-08T09:54:56;11.80;;;4.40;;
71435;SDS011;59251;51.326;12.370;2023-09-08T09:57:24;8.00;;;4.10;;
71435;SDS011;59251;51.326;12.370;2023-09-08T09:59:53;7.80;;;4.10;;
71435;SDS011;59251;51.326;12.370;2023-09-08T10:02:21;8.13;;;4.32;;
71435;SDS011;59251;51.326;12.370;2023-09-08T10:04:48;9.27;;;4.63;;
71435;SDS011;59251;51.326;12.370;2023-09-08T10:07:15;9.55;;;4.28;;
71435;SDS011;59251;51.326;12.370;2023-09-08T10:09:43;9.57;;;3.92;;
71435;SDS011;59251;51.326;12.370;2023-09-08T10:12:11;10.30;;;4.00;;
71435;SDS011;59251;51.326;12.370;2023-09-08T10:14:41;8.35;;;4.05;;
71435;SDS011;59251;51.326;12.370;2023-09-08T10:17:11;9.48;;;4.10;;
71435;SDS011;59251;51.326;12.370;2023-09-08T10:19:41;9.73;;;4.70;;
71435;SDS011;59251;51.326;12.370;2023-09-08T10:22:10;9.30;;;4.00;;
71435;SDS011;59251;51.326;12.370;2023-09-08T10:24:41;8.73;;;4.40;;
71435;SDS011;59251;51.326;12.370;2023-09-08T10:27:12;8.27;;;4.22;;
71435;SDS011;59251;51.326;12.370;2023-09-08T10:29:38;12.02;;;4.18;;
71435;SDS011;59251;51.326;12.370;2023-09-08T10:32:06;9.52;;;4.38;;
71435;SDS011;59251;51.326;12.370;2023-09-08T10:34:35;8.93;;;4.05;;
71435;SDS011;59251;51.326;12.370;2023-09-08T10:37:03;7.33;;;3.90;;
71435;SDS011;59251;51.326;12.370;2023-09-08T10:39:44;8.63;;;4.10;;
71435;SDS011;59251;51.326;12.370;2023-09-08T10:42:21;8.27;;;4.00;;
71435;SDS011;59251;51.326;12.370;2023-09-08T10:44:56;13.93;;;4.80;;
71435;SDS011;59251;51.326;12.370;2023-09-08T10:47:24;8.73;;;4.28;;
71435;SDS011;59251;51.326;12.370;2023-09-08T10:49:53;8.57;;;4.37;;
71435;SDS011;59251;51.326;12.370;2023-09-08T10:52:22;9.38;;;4.50;;
71435;SDS011;59251;51.326;12.370;2023-09-08T10:54:51;9.45;;;4.05;;
71435;SDS011;59251;51.326;12.370;2023-09-08T10:57:20;7.70;;;4.20;;
71435;SDS011;59251;51.326;12.370;2023-09-08T10:59:50;11.80;;;4.10;;
71435;SDS011;59251;51.326;12.370;2023-09-08T11:02:33;11.30;;;4.73;;
71435;SDS011;59251;51.326;12.370;2023-09-08T11:05:03;9.68;;;4.28;;
71435;SDS011;59251;51.326;12.370;2023-09-08T11:07:32;10.05;;;4.03;;
71435;SDS011;59251;51.326;12.370;2023-09-08T11:09:59;8.52;;;3.90;;
71435;SDS011;59251;51.326;12.370;2023-09-08T11:12:27;9.40;;;4.40;;
71435;SDS011;59251;51.326;12.370;2023-09-08T11:14:53;9.77;;;4.57;;
71435;SDS011;59251;51.326;12.370;2023-09-08T11:17:20;8.43;;;4.13;;
71435;SDS011;59251;51.326;12.370;2023-09-08T11:19:50;8.45;;;4.07;;
71435;SDS011;59251;51.326;12.370;2023-09-08T11:22:21;8.95;;;4.40;;
71435;SDS011;59251;51.326;12.370;2023-09-08T11:24:49;9.63;;;4.22;;
71435;SDS011;59251;51.326;12.370;2023-09-08T11:27:16;10.17;;;4.60;;
71435;SDS011;59251;51.326;12.370;2023-09-08T11:29:43;8.07;;;4.05;;
71435;SDS011;59251;51.326;12.370;2023-09-08T11:32:10;11.63;;;4.43;;
71435;SDS011;59251;51.326;12.370;2023-09-08T11:34:37;8.43;;;4.30;;
71435;SDS011;59251;51.326;12.370;2023-09-08T11:37:07;10.38;;;4.60;;
71435;SDS011;59251;51.326;12.370;2023-09-08T11:39:37;7.87;;;4.13;;
71435;SDS011;59251;51.326;12.370;2023-09-08T11:42:04;10.18;;;4.53;;
71435;SDS011;59251;51.326;12.370;2023-09-08T11:44:31;11.57;;;4.70;;
71435;SDS011;59251;51.326;12.370;2023-09-08T11:46:59;8.93;;;4.53;;
71435;SDS011;59251;51.326;12.370;2023-09-08T11:49:25;9.65;;;4.25;;
71435;SDS011;59251;51.326;12.370;2023-09-08T11:51:52;8.43;;;4.30;;
71435;SDS011;59251;51.326;12.370;2023-09-08T11:54:19;7.68;;;4.13;;
71435;SDS011;59251;51.326;12.370;2023-09-08T11:56:47;10.70;;;4.60;;
71435;SDS011;59251;51.326;12.370;2023-09-08T11:59:14;10.10;;;4.50;;
71435;SDS011;59251;51.326;12.370;2023-09-08T12:01:42;8.65;;;4.38;;
71435;SDS011;59251;51.326;12.370;2023-09-08T12:04:13;9.47;;;4.83;;
71435;SDS011;59251;51.326;12.370;2023-09-08T12:06:44;9.95;;;4.50;;
71435;SDS011;59251;51.326;12.370;2023-09-08T12:09:11;9.73;;;4.75;;
71435;SDS011;59251;51.326;12.370;2023-09-08T12:11:38;8.38;;;4.53;;
71435;SDS011;59251;51.326;12.370;2023-09-08T12:14:09;9.77;;;4.32;;
71435;SDS011;59251;51.326;12.370;2023-09-08T12:16:37;8.50;;;4.50;;
71435;SDS011;59251;51.326;12.370;2023-09-08T12:19:04;7.75;;;4.70;;
71435;SDS011;59251;51.326;12.370;2023-09-08T12:21:32;7.90;;;4.68;;
71435;SDS011;59251;51.326;12.370;2023-09-08T12:24:01;10.07;;;4.75;;
71435;SDS011;59251;51.326;12.370;2023-09-08T12:26:28;9.00;;;4.97;;
71435;SDS011;59251;51.326;12.370;2023-09-08T12:28:55;8.10;;;4.70;;
71435;SDS011;59251;51.326;12.370;2023-09-08T12:31:23;11.30;;;5.47;;
71435;SDS011;59251;51.326;12.370;2023-09-08T12:33:50;9.02;;;4.90;;
71435;SDS011;59251;51.326;12.370;2023-09-08T12:36:18;9.05;;;4.90;;
71435;SDS011;59251;51.326;12.370;2023-09-08T12:38:49;11.02;;;5.25;;
71435;SDS011;59251;51.326;12.370;2023-09-08T12:41:17;9.00;;;4.77;;
71435;SDS011;59251;51.326;12.370;2023-09-08T12:43:44;8.77;;;5.07;;
71435;SDS011;59251;51.326;12.370;2023-09-08T12:46:10;9.68;;;5.55;;
71435;SDS011;59251;51.326;12.370;2023-09-08T12:48:39;8.32;;;5.28;;
71435;SDS011;59251;51.326;12.370;2023-09-08T12:51:05;9.02;;;5.35;;
71435;SDS011;59251;51.326;12.370;2023-09-08T12:53:33;9.33;;;4.70;;
71435;SDS011;59251;51.326;12.370;2023-09-08T12:56:00;7.97;;;4.80;;
71435;SDS011;59251;51.326;12.370;2023-09-08T12:58:27;8.90;;;4.80;;
71435;SDS011;59251;51.326;12.370;2023-09-08T13:00:54;7.63;;;4.53;;
71435;SDS011;59251;51.326;12.370;2023-09-08T13:03:21;10.27;;;5.03;;
71435;SDS011;59251;51.326;12.370;2023-09-08T13:05:49;9.10;;;4.93;;
71435;SDS011;59251;51.326;12.370;2023-09-08T13:08:16;8.20;;;5.03;;
71435;SDS011;59251;51.326;12.370;2023-09-08T13:10:42;10.30;;;5.15;;
71435;SDS011;59251;51.326;12.370;2023-09-08T13:13:09;7.80;;;4.57;;
71435;SDS011;59251;51.326;12.370;2023-09-08T13:15:36;8.50;;;4.78;;
71435;SDS011;59251;51.326;12.370;2023-09-08T13:18:03;8.30;;;5.13;;
71435;SDS011;59251;51.326;12.370;2023-09-08T13:20:29;8.82;;;4.60;;
71435;SDS011;59251;51.326;12.370;2023-09-08T13:22:57;7.78;;;5.13;;
71435;SDS011;59251;51.326;12.370;2023-09-08T13:25:24;9.50;;;5.18;;
71435;SDS011;59251;51.326;12.370;2023-09-08T13:27:51;7.60;;;5.25;;
71435;SDS011;59251;51.326;12.370;2023-09-08T13:30:18;9.00;;;5.63;;
71435;SDS011;59251;51.326;12.370;2023-09-08T13:32:46;8.50;;;4.50;;
71435;SDS011;59251;51.326;12.370;2023-09-08T13:35:14;10.65;;;5.32;;
71435;SDS011;59251;51.326;12.370;2023-09-08T13:37:41;10.43;;;4.78;;
71435;SDS011;59251;51.326;12.370;2023-09-08T13:40:09;7.28;;;4.55;;
71435;SDS011;59251;51.326;12.370;2023-09-08T13:42:38;7.27;;;4.60;;
71435;SDS011;59251;51.326;12.370;2023-09-08T13:45:05;7.95;;;4.70;;
71435;SDS011;59251;51.326;12.370;2023-09-08T13:47:32;8.32;;;4.72;;
71435;SDS011;59251;51.326;12.370;2023-09-08T13:50:01;9.40;;;4.45;;
71435;SDS011;59251;51.326;12.370;2023-09-08T13:52:28;7.75;;;4.72;;
71435;SDS011;59251;51.326;12.370;2023-09-08T13:54:54;7.93;;;4.93;;
71435;SDS011;59251;51.326;12.370;2023-09-08T13:57:22;7.95;;;4.22;;
71435;SDS011;59251;51.326;12.370;2023-09-08T13:59:51;8.05;;;4.97;;
71435;SDS011;59251;51.326;12.370;2023-09-08T14:02:19;7.82;;;4.53;;
71435;SDS011;59251;51.326;12.370;2023-09-08T14:04:46;8.45;;;4.57;;
71435;SDS011;59251;51.326;12.370;2023-09-08T14:07:12;9.53;;;4.80;;
71435;SDS011;59251;51.326;12.370;2023-09-08T14:09:40;8.40;;;4.70;;
71435;SDS011;59251;51.326;12.370;2023-09-08T14:12:06;8.75;;;4.70;;
71435;SDS011;59251;51.326;12.370;2023-09-08T14:14:34;9.10;;;4.95;;
71435;SDS011;59251;51.326;12.370;2023-09-08T14:17:01;7.85;;;4.50;;
71435;SDS011;59251;51.326;12.370;2023-09-08T14:19:28;8.60;;;4.80;;
71435;SDS011;59251;51.326;12.370;2023-09-08T14:21:55;9.32;;;4.45;;
71435;SDS011;59251;51.326;12.370;2023-09-08T14:24:21;7.53;;;4.40;;
71435;SDS011;59251;51.326;12.370;2023-09-08T14:26:49;8.20;;;4.70;;
71435;SDS011;59251;51.326;12.370;2023-09-08T14:29:16;8.60;;;5.05;;
71435;SDS011;59251;51.326;12.370;2023-09-08T14:31:44;7.87;;;5.13;;
71435;SDS011;59251;51.326;12.370;2023-09-08T14:34:11;7.80;;;4.50;;